sensor_id;sensor_type;location;lat;lon;timestamp;temperature;humidity
38265;DHT22;24062;47.480;8.768;2023-05-31T00:02:22;12.50;65.30
38265;DHT22;24062;47.480;8.768;2023-05-31T00:04:48;12.50;65.40
38265;DHT22;24062;47.480;8.768;2023-05-31T00:07:17;12.40;67.90
38265;DHT22;24062;47.480;8.768;2023-05-31T00:09:44;12.30;67.10
38265;DHT22;24062;47.480;8.768;2023-05-31T00:12:11;12.20;66.90
38265;DHT22;24062;47.480;8.768;2023-05-31T00:14:37;12.20;67.20
38265;DHT22;24062;47.480;8.768;2023-05-31T00:17:05;12.20;67.80
38265;DHT22;24062;47.480;8.768;2023-05-31T00:19:32;12.20;67.60
38265;DHT22;24062;47.480;8.768;2023-05-31T00:21:59;12.20;68.20
38265;DHT22;24062;47.480;8.768;2023-05-31T00:24:27;12.10;67.80
38265;DHT22;24062;47.480;8.768;2023-05-31T00:26:54;12.10;67.70
38265;DHT22;24062;47.480;8.768;2023-05-31T00:29:21;12.00;67.70
38265;DHT22;24062;47.480;8.768;2023-05-31T00:31:48;12.10;68.10
38265;DHT22;24062;47.480;8.768;2023-05-31T00:34:15;12.10;68.10
38265;DHT22;24062;47.480;8.768;2023-05-31T00:36:42;12.10;68.30
38265;DHT22;24062;47.480;8.768;2023-05-31T00:39:09;12.10;68.50
38265;DHT22;24062;47.480;8.768;2023-05-31T00:41:37;12.10;68.40
38265;DHT22;24062;47.480;8.768;2023-05-31T00:44:04;12.00;69.00
38265;DHT22;24062;47.480;8.768;2023-05-31T00:46:32;12.00;68.90
38265;DHT22;24062;47.480;8.768;2023-05-31T00:49:02;11.90;69.10
38265;DHT22;24062;47.480;8.768;2023-05-31T00:51:31;11.90;69.30
38265;DHT22;24062;47.480;8.768;2023-05-31T00:53:58;11.90;69.80
38265;DHT22;24062;47.480;8.768;2023-05-31T00:56:26;11.90;70.40
38265;DHT22;24062;47.480;8.768;2023-05-31T00:58:56;11.90;69.90
38265;DHT22;24062;47.480;8.768;2023-05-31T01:01:24;12.00;70.60
38265;DHT22;24062;47.480;8.768;2023-05-31T01:03:53;12.10;70.50
38265;DHT22;24062;47.480;8.768;2023-05-31T01:06:20;12.20;71.00
38265;DHT22;24062;47.480;8.768;2023-05-31T01:08:48;12.20;70.30
38265;DHT22;24062;47.480;8.768;2023-05-31T01:11:21;12.20;70.20
38265;DHT22;24062;47.480;8.768;2023-05-31T01:13:58;12.10;70.40
38265;DHT22;24062;47.480;8.768;2023-05-31T01:16:31;12.10;70.40
38265;DHT22;24062;47.480;8.768;2023-05-31T01:19:00;12.10;70.50
38265;DHT22;24062;47.480;8.768;2023-05-31T01:21:32;12.00;70.40
38265;DHT22;24062;47.480;8.768;2023-05-31T01:24:25;11.90;70.60
38265;DHT22;24062;47.480;8.768;2023-05-31T01:26:55;11.80;71.50
38265;DHT22;24062;47.480;8.768;2023-05-31T01:29:26;11.80;71.00
38265;DHT22;24062;47.480;8.768;2023-05-31T01:31:55;11.80;71.90
38265;DHT22;24062;47.480;8.768;2023-05-31T01:34:23;11.70;71.60
38265;DHT22;24062;47.480;8.768;2023-05-31T01:36:50;11.70;72.20
38265;DHT22;24062;47.480;8.768;2023-05-31T01:39:18;11.70;72.10
38265;DHT22;24062;47.480;8.768;2023-05-31T01:41:47;11.60;73.30
38265;DHT22;24062;47.480;8.768;2023-05-31T01:44:17;11.50;73.30
38265;DHT22;24062;47.480;8.768;2023-05-31T01:46:46;11.50;73.10
38265;DHT22;24062;47.480;8.768;2023-05-31T01:49:13;11.40;73.70
38265;DHT22;24062;47.480;8.768;2023-05-31T01:51:41;11.30;74.10
38265;DHT22;24062;47.480;8.768;2023-05-31T01:54:09;11.30;74.40
38265;DHT22;24062;47.480;8.768;2023-05-31T01:56:37;11.30;74.60
38265;DHT22;24062;47.480;8.768;2023-05-31T01:59:07;11.20;74.80
38265;DHT22;24062;47.480;8.768;2023-05-31T02:01:36;11.20;74.40
38265;DHT22;24062;47.480;8.768;2023-05-31T02:04:04;11.20;75.80
38265;DHT22;24062;47.480;8.768;2023-05-31T02:06:35;11.10;75.20
38265;DHT22;24062;47.480;8.768;2023-05-31T02:09:02;11.10;75.20
38265;DHT22;24062;47.480;8.768;2023-05-31T02:11:29;11.10;75.80
38265;DHT22;24062;47.480;8.768;2023-05-31T02:13:56;11.10;76.30
38265;DHT22;24062;47.480;8.768;2023-05-31T02:16:23;11.00;76.50
38265;DHT22;24062;47.480;8.768;2023-05-31T02:18:51;11.00;76.80
38265;DHT22;24062;47.480;8.768;2023-05-31T02:21:18;10.90;76.30
38265;DHT22;24062;47.480;8.768;2023-05-31T02:23:45;10.90;76.30
38265;DHT22;24062;47.480;8.768;2023-05-31T02:26:12;10.90;77.20
38265;DHT22;24062;47.480;8.768;2023-05-31T02:28:39;10.80;76.90
38265;DHT22;24062;47.480;8.768;2023-05-31T02:31:06;10.80;77.60
38265;DHT22;24062;47.480;8.768;2023-05-31T02:33:33;10.80;77.50
38265;DHT22;24062;47.480;8.768;2023-05-31T02:36:01;10.70;77.80
38265;DHT22;24062;47.480;8.768;2023-05-31T02:38:29;10.70;78.70
38265;DHT22;24062;47.480;8.768;2023-05-31T02:40:56;10.70;78.60
38265;DHT22;24062;47.480;8.768;2023-05-31T02:43:22;10.70;78.40
38265;DHT22;24062;47.480;8.768;2023-05-31T02:45:49;10.70;78.30
38265;DHT22;24062;47.480;8.768;2023-05-31T02:48:16;10.70;78.80
38265;DHT22;24062;47.480;8.768;2023-05-31T02:50:43;10.70;79.10
38265;DHT22;24062;47.480;8.768;2023-05-31T02:53:12;10.60;78.90
38265;DHT22;24062;47.480;8.768;2023-05-31T02:55:39;10.60;78.60
38265;DHT22;24062;47.480;8.768;2023-05-31T02:58:06;10.60;79.20
38265;DHT22;24062;47.480;8.768;2023-05-31T03:00:33;10.50;80.00
38265;DHT22;24062;47.480;8.768;2023-05-31T03:03:00;10.50;80.20
38265;DHT22;24062;47.480;8.768;2023-05-31T03:05:27;10.40;80.60
38265;DHT22;24062;47.480;8.768;2023-05-31T03:07:55;10.40;80.90
38265;DHT22;24062;47.480;8.768;2023-05-31T03:10:23;10.40;80.50
38265;DHT22;24062;47.480;8.768;2023-05-31T03:12:50;10.40;80.50
38265;DHT22;24062;47.480;8.768;2023-05-31T03:15:17;10.40;80.70
38265;DHT22;24062;47.480;8.768;2023-05-31T03:17:44;10.40;80.70
38265;DHT22;24062;47.480;8.768;2023-05-31T03:20:11;10.30;80.70
38265;DHT22;24062;47.480;8.768;2023-05-31T03:22:38;10.30;80.70
38265;DHT22;24062;47.480;8.768;2023-05-31T03:25:06;10.40;81.00
38265;DHT22;24062;47.480;8.768;2023-05-31T03:27:34;10.30;81.50
38265;DHT22;24062;47.480;8.768;2023-05-31T03:30:01;10.30;81.40
38265;DHT22;24062;47.480;8.768;2023-05-31T03:32:28;10.30;81.70
38265;DHT22;24062;47.480;8.768;2023-05-31T03:34:55;10.30;81.40
38265;DHT22;24062;47.480;8.768;2023-05-31T03:37:22;10.40;81.30
38265;DHT22;24062;47.480;8.768;2023-05-31T03:39:49;10.40;81.50
38265;DHT22;24062;47.480;8.768;2023-05-31T03:42:16;10.30;81.50
38265;DHT22;24062;47.480;8.768;2023-05-31T03:44:44;10.40;81.80
38265;DHT22;24062;47.480;8.768;2023-05-31T03:47:11;10.30;82.40
38265;DHT22;24062;47.480;8.768;2023-05-31T03:49:38;10.30;82.40
38265;DHT22;24062;47.480;8.768;2023-05-31T03:52:05;10.40;83.50
38265;DHT22;24062;47.480;8.768;2023-05-31T03:54:34;10.50;83.90
38265;DHT22;24062;47.480;8.768;2023-05-31T03:57:02;10.60;84.00
38265;DHT22;24062;47.480;8.768;2023-05-31T03:59:29;10.70;84.00
38265;DHT22;24062;47.480;8.768;2023-05-31T04:01:57;10.80;84.30
38265;DHT22;24062;47.480;8.768;2023-05-31T04:04:24;10.90;84.10
38265;DHT22;24062;47.480;8.768;2023-05-31T04:06:51;10.90;84.00
38265;DHT22;24062;47.480;8.768;2023-05-31T04:09:18;11.00;83.60
38265;DHT22;24062;47.480;8.768;2023-05-31T04:11:45;10.90;83.30
38265;DHT22;24062;47.480;8.768;2023-05-31T04:14:12;11.00;83.50
38265;DHT22;24062;47.480;8.768;2023-05-31T04:16:39;10.90;83.20
38265;DHT22;24062;47.480;8.768;2023-05-31T04:19:08;10.90;83.70
38265;DHT22;24062;47.480;8.768;2023-05-31T04:21:36;10.90;83.70
38265;DHT22;24062;47.480;8.768;2023-05-31T04:24:03;10.90;84.10
38265;DHT22;24062;47.480;8.768;2023-05-31T04:26:30;11.00;84.30
38265;DHT22;24062;47.480;8.768;2023-05-31T04:28:58;11.00;84.50
38265;DHT22;24062;47.480;8.768;2023-05-31T04:31:27;11.10;86.00
38265;DHT22;24062;47.480;8.768;2023-05-31T04:33:55;11.20;85.30
38265;DHT22;24062;47.480;8.768;2023-05-31T04:36:26;11.30;85.00
38265;DHT22;24062;47.480;8.768;2023-05-31T04:38:53;11.50;85.10
38265;DHT22;24062;47.480;8.768;2023-05-31T04:41:21;11.50;85.30
38265;DHT22;24062;47.480;8.768;2023-05-31T04:43:51;11.60;85.10
38265;DHT22;24062;47.480;8.768;2023-05-31T04:46:18;11.70;85.30
38265;DHT22;24062;47.480;8.768;2023-05-31T04:48:47;11.80;85.10
38265;DHT22;24062;47.480;8.768;2023-05-31T04:51:15;11.90;85.20
38265;DHT22;24062;47.480;8.768;2023-05-31T04:53:44;12.00;85.60
38265;DHT22;24062;47.480;8.768;2023-05-31T04:56:13;12.10;85.60
38265;DHT22;24062;47.480;8.768;2023-05-31T04:58:40;12.20;85.70
38265;DHT22;24062;47.480;8.768;2023-05-31T05:01:07;12.30;85.90
38265;DHT22;24062;47.480;8.768;2023-05-31T05:03:34;12.50;86.00
38265;DHT22;24062;47.480;8.768;2023-05-31T05:06:11;12.60;86.00
38265;DHT22;24062;47.480;8.768;2023-05-31T05:08:39;12.80;85.70
38265;DHT22;24062;47.480;8.768;2023-05-31T05:11:07;12.90;85.50
38265;DHT22;24062;47.480;8.768;2023-05-31T05:13:34;13.00;85.20
38265;DHT22;24062;47.480;8.768;2023-05-31T05:16:01;13.20;85.10
38265;DHT22;24062;47.480;8.768;2023-05-31T05:18:29;13.30;84.90
38265;DHT22;24062;47.480;8.768;2023-05-31T05:20:56;13.40;84.60
38265;DHT22;24062;47.480;8.768;2023-05-31T05:23:23;13.50;84.40
38265;DHT22;24062;47.480;8.768;2023-05-31T05:25:50;13.60;84.60
38265;DHT22;24062;47.480;8.768;2023-05-31T05:28:18;13.80;84.30
38265;DHT22;24062;47.480;8.768;2023-05-31T05:30:45;13.90;84.00
38265;DHT22;24062;47.480;8.768;2023-05-31T05:33:12;14.00;83.70
38265;DHT22;24062;47.480;8.768;2023-05-31T05:35:39;14.00;83.50
38265;DHT22;24062;47.480;8.768;2023-05-31T05:38:06;14.20;83.20
38265;DHT22;24062;47.480;8.768;2023-05-31T05:40:33;14.30;83.10
38265;DHT22;24062;47.480;8.768;2023-05-31T05:43:00;14.50;83.20
38265;DHT22;24062;47.480;8.768;2023-05-31T05:45:28;14.60;82.60
38265;DHT22;24062;47.480;8.768;2023-05-31T05:47:55;14.70;81.60
38265;DHT22;24062;47.480;8.768;2023-05-31T05:50:22;14.70;80.90
38265;DHT22;24062;47.480;8.768;2023-05-31T05:52:49;14.80;80.10
38265;DHT22;24062;47.480;8.768;2023-05-31T05:55:16;14.90;80.80
38265;DHT22;24062;47.480;8.768;2023-05-31T05:57:43;15.00;79.80
38265;DHT22;24062;47.480;8.768;2023-05-31T06:00:10;15.00;79.10
38265;DHT22;24062;47.480;8.768;2023-05-31T06:02:41;15.10;79.80
38265;DHT22;24062;47.480;8.768;2023-05-31T06:05:08;15.30;80.00
38265;DHT22;24062;47.480;8.768;2023-05-31T06:07:35;15.30;78.40
38265;DHT22;24062;47.480;8.768;2023-05-31T06:10:02;15.50;79.40
38265;DHT22;24062;47.480;8.768;2023-05-31T06:12:29;15.60;79.20
38265;DHT22;24062;47.480;8.768;2023-05-31T06:14:56;15.80;78.20
38265;DHT22;24062;47.480;8.768;2023-05-31T06:17:23;15.90;78.00
38265;DHT22;24062;47.480;8.768;2023-05-31T06:19:51;16.00;77.30
38265;DHT22;24062;47.480;8.768;2023-05-31T06:22:18;16.10;76.80
38265;DHT22;24062;47.480;8.768;2023-05-31T06:24:45;16.20;76.10
38265;DHT22;24062;47.480;8.768;2023-05-31T06:27:13;16.30;76.40
38265;DHT22;24062;47.480;8.768;2023-05-31T06:29:40;16.40;76.00
38265;DHT22;24062;47.480;8.768;2023-05-31T06:32:07;16.50;75.50
38265;DHT22;24062;47.480;8.768;2023-05-31T06:34:34;16.50;74.20
38265;DHT22;24062;47.480;8.768;2023-05-31T06:37:03;16.50;74.30
38265;DHT22;24062;47.480;8.768;2023-05-31T06:39:30;16.60;73.80
38265;DHT22;24062;47.480;8.768;2023-05-31T06:41:57;16.70;74.00
38265;DHT22;24062;47.480;8.768;2023-05-31T06:44:25;16.80;73.20
38265;DHT22;24062;47.480;8.768;2023-05-31T06:46:53;16.90;73.20
38265;DHT22;24062;47.480;8.768;2023-05-31T06:49:20;17.00;72.40
38265;DHT22;24062;47.480;8.768;2023-05-31T06:51:47;17.10;70.40
38265;DHT22;24062;47.480;8.768;2023-05-31T06:54:15;17.10;71.50
38265;DHT22;24062;47.480;8.768;2023-05-31T06:56:42;17.20;71.70
38265;DHT22;24062;47.480;8.768;2023-05-31T06:59:09;17.30;70.50
38265;DHT22;24062;47.480;8.768;2023-05-31T07:01:36;17.40;70.50
38265;DHT22;24062;47.480;8.768;2023-05-31T07:04:03;17.50;69.50
38265;DHT22;24062;47.480;8.768;2023-05-31T07:06:30;17.50;69.10
38265;DHT22;24062;47.480;8.768;2023-05-31T07:08:57;17.60;70.00
38265;DHT22;24062;47.480;8.768;2023-05-31T07:11:25;17.80;70.00
38265;DHT22;24062;47.480;8.768;2023-05-31T07:13:52;18.00;70.00
38265;DHT22;24062;47.480;8.768;2023-05-31T07:16:20;18.10;68.20
38265;DHT22;24062;47.480;8.768;2023-05-31T07:18:46;18.20;68.00
38265;DHT22;24062;47.480;8.768;2023-05-31T07:21:13;18.20;67.00
38265;DHT22;24062;47.480;8.768;2023-05-31T07:23:40;18.20;66.10
38265;DHT22;24062;47.480;8.768;2023-05-31T07:26:07;18.30;65.60
38265;DHT22;24062;47.480;8.768;2023-05-31T07:28:35;18.30;66.80
38265;DHT22;24062;47.480;8.768;2023-05-31T07:31:03;18.40;66.80
38265;DHT22;24062;47.480;8.768;2023-05-31T07:33:30;18.60;67.30
38265;DHT22;24062;47.480;8.768;2023-05-31T07:35:58;18.70;66.40
38265;DHT22;24062;47.480;8.768;2023-05-31T07:38:26;18.70;65.10
38265;DHT22;24062;47.480;8.768;2023-05-31T07:40:53;18.80;65.70
38265;DHT22;24062;47.480;8.768;2023-05-31T07:43:20;18.90;66.00
38265;DHT22;24062;47.480;8.768;2023-05-31T07:45:49;19.10;65.90
38265;DHT22;24062;47.480;8.768;2023-05-31T07:48:16;19.20;65.30
38265;DHT22;24062;47.480;8.768;2023-05-31T07:50:44;19.30;65.10
38265;DHT22;24062;47.480;8.768;2023-05-31T07:53:11;19.40;64.40
38265;DHT22;24062;47.480;8.768;2023-05-31T07:55:37;19.50;64.20
38265;DHT22;24062;47.480;8.768;2023-05-31T07:58:04;19.50;63.10
38265;DHT22;24062;47.480;8.768;2023-05-31T08:00:32;19.40;62.40
38265;DHT22;24062;47.480;8.768;2023-05-31T08:03:00;19.50;62.80
38265;DHT22;24062;47.480;8.768;2023-05-31T08:05:27;19.60;63.40
38265;DHT22;24062;47.480;8.768;2023-05-31T08:07:54;19.60;62.60
38265;DHT22;24062;47.480;8.768;2023-05-31T08:10:21;19.70;62.60
38265;DHT22;24062;47.480;8.768;2023-05-31T08:12:48;19.80;61.60
38265;DHT22;24062;47.480;8.768;2023-05-31T08:15:15;19.80;60.80
38265;DHT22;24062;47.480;8.768;2023-05-31T08:17:42;19.80;61.70
38265;DHT22;24062;47.480;8.768;2023-05-31T08:20:11;20.00;61.60
38265;DHT22;24062;47.480;8.768;2023-05-31T08:22:42;20.10;61.90
38265;DHT22;24062;47.480;8.768;2023-05-31T08:25:09;20.20;61.70
38265;DHT22;24062;47.480;8.768;2023-05-31T08:27:38;20.40;61.30
38265;DHT22;24062;47.480;8.768;2023-05-31T08:30:08;20.40;60.40
38265;DHT22;24062;47.480;8.768;2023-05-31T08:32:36;20.40;60.40
38265;DHT22;24062;47.480;8.768;2023-05-31T08:35:03;20.60;60.80
38265;DHT22;24062;47.480;8.768;2023-05-31T08:37:33;20.60;60.20
38265;DHT22;24062;47.480;8.768;2023-05-31T08:40:00;20.70;60.60
38265;DHT22;24062;47.480;8.768;2023-05-31T08:42:33;20.80;59.50
38265;DHT22;24062;47.480;8.768;2023-05-31T08:45:00;20.80;59.30
38265;DHT22;24062;47.480;8.768;2023-05-31T08:47:30;20.90;59.30
38265;DHT22;24062;47.480;8.768;2023-05-31T08:49:59;21.00;59.30
38265;DHT22;24062;47.480;8.768;2023-05-31T08:52:27;21.00;58.90
38265;DHT22;24062;47.480;8.768;2023-05-31T08:54:56;21.10;58.90
38265;DHT22;24062;47.480;8.768;2023-05-31T08:57:24;21.20;58.70
38265;DHT22;24062;47.480;8.768;2023-05-31T08:59:52;21.20;58.10
38265;DHT22;24062;47.480;8.768;2023-05-31T09:02:20;21.20;57.90
38265;DHT22;24062;47.480;8.768;2023-05-31T09:04:48;21.20;58.30
38265;DHT22;24062;47.480;8.768;2023-05-31T09:07:17;21.40;58.40
38265;DHT22;24062;47.480;8.768;2023-05-31T09:09:44;21.50;57.60
38265;DHT22;24062;47.480;8.768;2023-05-31T09:12:12;21.60;57.60
38265;DHT22;24062;47.480;8.768;2023-05-31T09:14:39;21.70;58.00
38265;DHT22;24062;47.480;8.768;2023-05-31T09:17:06;21.80;57.80
38265;DHT22;24062;47.480;8.768;2023-05-31T09:19:34;21.90;57.60
38265;DHT22;24062;47.480;8.768;2023-05-31T09:22:03;21.90;56.90
38265;DHT22;24062;47.480;8.768;2023-05-31T09:24:30;21.90;56.90
38265;DHT22;24062;47.480;8.768;2023-05-31T09:26:57;22.00;56.70
38265;DHT22;24062;47.480;8.768;2023-05-31T09:29:27;22.10;56.70
38265;DHT22;24062;47.480;8.768;2023-05-31T09:32:07;22.10;56.30
38265;DHT22;24062;47.480;8.768;2023-05-31T09:34:35;22.20;56.20
38265;DHT22;24062;47.480;8.768;2023-05-31T09:37:02;22.20;56.40
38265;DHT22;24062;47.480;8.768;2023-05-31T09:39:30;22.30;56.10
38265;DHT22;24062;47.480;8.768;2023-05-31T09:41:57;22.40;55.80
38265;DHT22;24062;47.480;8.768;2023-05-31T09:44:29;22.60;56.60
38265;DHT22;24062;47.480;8.768;2023-05-31T09:46:56;22.70;55.70
38265;DHT22;24062;47.480;8.768;2023-05-31T09:49:33;22.80;55.00
38265;DHT22;24062;47.480;8.768;2023-05-31T09:52:01;22.80;55.20
38265;DHT22;24062;47.480;8.768;2023-05-31T09:54:27;22.80;55.10
38265;DHT22;24062;47.480;8.768;2023-05-31T09:56:55;22.80;54.80
38265;DHT22;24062;47.480;8.768;2023-05-31T09:59:21;22.90;54.80
38265;DHT22;24062;47.480;8.768;2023-05-31T10:01:50;23.00;54.90
38265;DHT22;24062;47.480;8.768;2023-05-31T10:04:18;23.20;54.80
38265;DHT22;24062;47.480;8.768;2023-05-31T10:06:48;23.20;54.20
38265;DHT22;24062;47.480;8.768;2023-05-31T10:09:15;23.40;54.20
38265;DHT22;24062;47.480;8.768;2023-05-31T10:11:50;23.40;54.40
38265;DHT22;24062;47.480;8.768;2023-05-31T10:14:23;23.50;54.30
38265;DHT22;24062;47.480;8.768;2023-05-31T10:16:54;23.60;54.10
38265;DHT22;24062;47.480;8.768;2023-05-31T10:19:23;23.80;53.90
38265;DHT22;24062;47.480;8.768;2023-05-31T10:21:50;23.90;53.20
38265;DHT22;24062;47.480;8.768;2023-05-31T10:24:23;23.90;52.70
38265;DHT22;24062;47.480;8.768;2023-05-31T10:26:56;24.00;53.30
38265;DHT22;24062;47.480;8.768;2023-05-31T10:29:28;24.10;52.60
38265;DHT22;24062;47.480;8.768;2023-05-31T10:32:05;24.10;52.30
38265;DHT22;24062;47.480;8.768;2023-05-31T10:34:33;24.10;52.30
38265;DHT22;24062;47.480;8.768;2023-05-31T10:37:01;24.10;52.30
38265;DHT22;24062;47.480;8.768;2023-05-31T10:39:33;24.20;52.30
38265;DHT22;24062;47.480;8.768;2023-05-31T10:42:08;24.30;52.00
38265;DHT22;24062;47.480;8.768;2023-05-31T10:44:41;24.50;51.80
38265;DHT22;24062;47.480;8.768;2023-05-31T10:47:11;24.50;51.40
38265;DHT22;24062;47.480;8.768;2023-05-31T10:49:42;24.70;52.10
38265;DHT22;24062;47.480;8.768;2023-05-31T10:52:10;24.90;51.60
38265;DHT22;24062;47.480;8.768;2023-05-31T10:54:38;25.00;50.70
38265;DHT22;24062;47.480;8.768;2023-05-31T10:57:06;25.00;50.70
38265;DHT22;24062;47.480;8.768;2023-05-31T10:59:40;25.10;52.00
38265;DHT22;24062;47.480;8.768;2023-05-31T11:02:10;25.30;50.90
38265;DHT22;24062;47.480;8.768;2023-05-31T11:04:38;25.40;50.90
38265;DHT22;24062;47.480;8.768;2023-05-31T11:07:13;25.60;51.40
38265;DHT22;24062;47.480;8.768;2023-05-31T11:09:51;25.80;50.30
38265;DHT22;24062;47.480;8.768;2023-05-31T11:12:31;25.80;49.80
38265;DHT22;24062;47.480;8.768;2023-05-31T11:15:00;25.80;49.60
38265;DHT22;24062;47.480;8.768;2023-05-31T11:17:29;25.90;49.50
38265;DHT22;24062;47.480;8.768;2023-05-31T11:19:56;25.90;48.70
38265;DHT22;24062;47.480;8.768;2023-05-31T11:22:27;25.80;48.70
38265;DHT22;24062;47.480;8.768;2023-05-31T11:24:55;25.90;49.00
38265;DHT22;24062;47.480;8.768;2023-05-31T11:27:34;26.00;48.70
38265;DHT22;24062;47.480;8.768;2023-05-31T11:30:01;26.10;48.40
38265;DHT22;24062;47.480;8.768;2023-05-31T11:32:56;26.10;48.40
38265;DHT22;24062;47.480;8.768;2023-05-31T11:35:24;26.30;48.10
38265;DHT22;24062;47.480;8.768;2023-05-31T11:38:03;26.30;47.60
38265;DHT22;24062;47.480;8.768;2023-05-31T11:40:31;26.50;48.10
38265;DHT22;24062;47.480;8.768;2023-05-31T11:43:08;26.60;48.00
38265;DHT22;24062;47.480;8.768;2023-05-31T11:45:41;26.80;47.50
38265;DHT22;24062;47.480;8.768;2023-05-31T11:48:19;26.90;46.80
38265;DHT22;24062;47.480;8.768;2023-05-31T11:50:48;26.90;47.30
38265;DHT22;24062;47.480;8.768;2023-05-31T11:53:15;27.00;46.80
38265;DHT22;24062;47.480;8.768;2023-05-31T11:55:45;27.00;46.20
38265;DHT22;24062;47.480;8.768;2023-05-31T11:58:14;26.90;46.50
38265;DHT22;24062;47.480;8.768;2023-05-31T12:00:46;26.90;46.30
38265;DHT22;24062;47.480;8.768;2023-05-31T12:03:16;26.90;46.40
38265;DHT22;24062;47.480;8.768;2023-05-31T12:05:49;27.10;46.00
38265;DHT22;24062;47.480;8.768;2023-05-31T12:08:17;27.30;46.00
38265;DHT22;24062;47.480;8.768;2023-05-31T12:10:44;27.40;45.60
38265;DHT22;24062;47.480;8.768;2023-05-31T12:13:15;27.50;45.60
38265;DHT22;24062;47.480;8.768;2023-05-31T12:15:42;27.80;46.10
38265;DHT22;24062;47.480;8.768;2023-05-31T12:18:09;27.90;45.70
38265;DHT22;24062;47.480;8.768;2023-05-31T12:20:42;28.10;45.30
38265;DHT22;24062;47.480;8.768;2023-05-31T12:23:10;28.10;44.80
38265;DHT22;24062;47.480;8.768;2023-05-31T12:25:42;28.30;45.20
38265;DHT22;24062;47.480;8.768;2023-05-31T12:28:10;28.40;45.00
38265;DHT22;24062;47.480;8.768;2023-05-31T12:30:42;28.60;44.40
38265;DHT22;24062;47.480;8.768;2023-05-31T12:33:09;28.70;43.80
38265;DHT22;24062;47.480;8.768;2023-05-31T12:35:41;28.80;44.10
38265;DHT22;24062;47.480;8.768;2023-05-31T12:38:08;29.00;43.20
38265;DHT22;24062;47.480;8.768;2023-05-31T12:40:40;29.00;43.00
38265;DHT22;24062;47.480;8.768;2023-05-31T12:43:07;29.30;43.70
38265;DHT22;24062;47.480;8.768;2023-05-31T12:45:39;29.40;43.10
38265;DHT22;24062;47.480;8.768;2023-05-31T12:48:08;29.50;43.10
38265;DHT22;24062;47.480;8.768;2023-05-31T12:50:36;29.60;43.10
38265;DHT22;24062;47.480;8.768;2023-05-31T12:53:06;29.80;43.90
38265;DHT22;24062;47.480;8.768;2023-05-31T12:55:34;29.90;42.60
38265;DHT22;24062;47.480;8.768;2023-05-31T12:58:01;29.90;42.10
38265;DHT22;24062;47.480;8.768;2023-05-31T13:00:29;30.00;42.50
38265;DHT22;24062;47.480;8.768;2023-05-31T13:02:56;30.20;42.30
38265;DHT22;24062;47.480;8.768;2023-05-31T13:05:23;30.30;41.60
38265;DHT22;24062;47.480;8.768;2023-05-31T13:07:51;30.30;41.20
38265;DHT22;24062;47.480;8.768;2023-05-31T13:10:21;30.40;40.90
38265;DHT22;24062;47.480;8.768;2023-05-31T13:12:47;30.40;41.00
38265;DHT22;24062;47.480;8.768;2023-05-31T13:15:15;30.70;41.50
38265;DHT22;24062;47.480;8.768;2023-05-31T13:17:42;31.20;41.50
38265;DHT22;24062;47.480;8.768;2023-05-31T13:20:09;31.40;40.40
38265;DHT22;24062;47.480;8.768;2023-05-31T13:22:37;31.30;40.10
38265;DHT22;24062;47.480;8.768;2023-05-31T13:25:05;31.40;40.30
38265;DHT22;24062;47.480;8.768;2023-05-31T13:27:33;31.70;40.90
38265;DHT22;24062;47.480;8.768;2023-05-31T13:30:00;31.80;39.70
38265;DHT22;24062;47.480;8.768;2023-05-31T13:32:27;31.90;39.70
38265;DHT22;24062;47.480;8.768;2023-05-31T13:34:54;32.20;39.40
38265;DHT22;24062;47.480;8.768;2023-05-31T13:37:21;32.60;39.70
38265;DHT22;24062;47.480;8.768;2023-05-31T13:39:48;33.00;38.70
38265;DHT22;24062;47.480;8.768;2023-05-31T13:42:15;33.50;38.60
38265;DHT22;24062;47.480;8.768;2023-05-31T13:44:43;34.20;38.10
38265;DHT22;24062;47.480;8.768;2023-05-31T13:47:10;34.90;37.70
38265;DHT22;24062;47.480;8.768;2023-05-31T13:49:37;35.80;36.50
38265;DHT22;24062;47.480;8.768;2023-05-31T13:52:06;36.70;36.20
38265;DHT22;24062;47.480;8.768;2023-05-31T13:54:35;38.30;35.10
38265;DHT22;24062;47.480;8.768;2023-05-31T13:57:02;39.70;34.80
38265;DHT22;24062;47.480;8.768;2023-05-31T13:59:29;40.80;34.20
38265;DHT22;24062;47.480;8.768;2023-05-31T14:01:58;42.00;34.00
38265;DHT22;24062;47.480;8.768;2023-05-31T14:04:25;43.10;34.20
38265;DHT22;24062;47.480;8.768;2023-05-31T14:06:52;44.30;32.80
38265;DHT22;24062;47.480;8.768;2023-05-31T14:09:19;45.00;31.90
38265;DHT22;24062;47.480;8.768;2023-05-31T14:11:47;45.30;30.60
38265;DHT22;24062;47.480;8.768;2023-05-31T14:14:14;45.40;30.00
38265;DHT22;24062;47.480;8.768;2023-05-31T14:16:41;46.30;31.20
38265;DHT22;24062;47.480;8.768;2023-05-31T14:19:09;47.70;30.90
38265;DHT22;24062;47.480;8.768;2023-05-31T14:21:36;48.60;30.00
38265;DHT22;24062;47.480;8.768;2023-05-31T14:24:03;49.40;30.00
38265;DHT22;24062;47.480;8.768;2023-05-31T14:26:30;49.90;29.00
38265;DHT22;24062;47.480;8.768;2023-05-31T14:28:57;50.00;28.10
38265;DHT22;24062;47.480;8.768;2023-05-31T14:31:24;49.50;27.60
38265;DHT22;24062;47.480;8.768;2023-05-31T14:33:51;49.60;27.90
38265;DHT22;24062;47.480;8.768;2023-05-31T14:36:19;49.90;27.70
38265;DHT22;24062;47.480;8.768;2023-05-31T14:38:46;49.70;27.30
38265;DHT22;24062;47.480;8.768;2023-05-31T14:41:13;50.00;27.00
38265;DHT22;24062;47.480;8.768;2023-05-31T14:43:40;49.90;27.00
38265;DHT22;24062;47.480;8.768;2023-05-31T14:46:07;50.70;27.20
38265;DHT22;24062;47.480;8.768;2023-05-31T14:48:34;51.00;26.70
38265;DHT22;24062;47.480;8.768;2023-05-31T14:51:01;50.90;26.60
38265;DHT22;24062;47.480;8.768;2023-05-31T14:53:29;50.80;26.40
38265;DHT22;24062;47.480;8.768;2023-05-31T14:55:56;50.80;26.40
38265;DHT22;24062;47.480;8.768;2023-05-31T14:58:24;50.60;26.20
38265;DHT22;24062;47.480;8.768;2023-05-31T15:00:51;50.20;26.10
38265;DHT22;24062;47.480;8.768;2023-05-31T15:03:18;50.00;25.70
38265;DHT22;24062;47.480;8.768;2023-05-31T15:05:45;49.40;25.80
38265;DHT22;24062;47.480;8.768;2023-05-31T15:08:12;49.80;26.10
38265;DHT22;24062;47.480;8.768;2023-05-31T15:10:40;49.50;25.70
38265;DHT22;24062;47.480;8.768;2023-05-31T15:13:07;49.40;25.70
38265;DHT22;24062;47.480;8.768;2023-05-31T15:15:34;48.90;25.70
38265;DHT22;24062;47.480;8.768;2023-05-31T15:18:03;49.00;26.00
38265;DHT22;24062;47.480;8.768;2023-05-31T15:20:31;49.40;25.90
38265;DHT22;24062;47.480;8.768;2023-05-31T15:22:58;49.50;25.80
38265;DHT22;24062;47.480;8.768;2023-05-31T15:25:24;49.30;25.70
38265;DHT22;24062;47.480;8.768;2023-05-31T15:27:53;49.60;25.90
38265;DHT22;24062;47.480;8.768;2023-05-31T15:30:20;49.60;25.40
38265;DHT22;24062;47.480;8.768;2023-05-31T15:32:47;49.60;25.80
38265;DHT22;24062;47.480;8.768;2023-05-31T15:35:14;49.80;25.40
38265;DHT22;24062;47.480;8.768;2023-05-31T15:37:41;49.30;25.90